Time;durP1;ratioP1;P1;durP2;ratioP2;P2;SDS_P1;SDS_P2;PMS_P1;PMS_P2;Temp;Humidity;BMP_temperature;BMP_pressure;BME280_temperature;BME280_humidity;BME280_pressure;Samples;Min_cycle;Max_cycle;Signal;HPM_P1;HPM_P2
2021/08/01 00:01:45;;;;;;;20.25;8.48;;;;;;;;;;5064654;28;38946;-78
2021/08/01 00:04:11;;;;;;;22.10;8.23;;;;;;;;;;5067385;28;38981;-77
2021/08/01 00:06:38;;;;;;;19.58;6.90;;;;;;;;;;5066887;28;37243;-78
2021/08/01 00:09:04;;;;;;;19.73;9.10;;;;;;;;;;5065535;28;39566;-77
2021/08/01 00:11:31;;;;;;;26.77;9.35;;;;;;;;;;5082227;27;39024;-78
2021/08/01 00:13:57;;;;;;;24.65;9.45;;;;;;;;;;5050314;28;37016;-78
2021/08/01 00:16:24;;;;;;;18.00;8.45;;;;;;;;;;5066209;28;38596;-77
2021/08/01 00:18:50;;;;;;;20.38;9.73;;;;;;;;;;5069105;28;39085;-77
2021/08/01 00:21:17;;;;;;;24.33;10.35;;;;;;;;;;5065084;28;39128;-77
2021/08/01 00:23:43;;;;;;;20.13;9.52;;;;;;;;;;5067659;28;39166;-77
2021/08/01 00:26:10;;;;;;;24.95;10.55;;;;;;;;;;5066279;28;37765;-78
2021/08/01 00:28:36;;;;;;;25.30;10.40;;;;;;;;;;5068690;28;38945;-77
2021/08/01 00:31:02;;;;;;;20.98;10.20;;;;;;;;;;5067132;28;38826;-77
2021/08/01 00:33:29;;;;;;;25.70;11.10;;;;;;;;;;5068045;28;39484;-77
2021/08/01 00:35:55;;;;;;;17.65;8.40;;;;;;;;;;5067067;28;37246;-78
2021/08/01 00:38:21;;;;;;;21.42;8.82;;;;;;;;;;5068988;28;40019;-78
2021/08/01 00:40:48;;;;;;;25.75;9.45;;;;;;;;;;5068971;28;38609;-78
2021/08/01 00:43:14;;;;;;;17.58;9.90;;;;;;;;;;5066483;28;38879;-78
2021/08/01 00:45:41;;;;;;;20.98;8.73;;;;;;;;;;5050946;28;37441;-78
2021/08/01 00:48:12;;;;;;;22.13;9.48;;;;;;;;;;5050639;28;37919;-77
2021/08/01 00:50:39;;;;;;;26.05;10.30;;;;;;;;;;5067377;28;38357;-77
2021/08/01 00:53:07;;;;;;;20.08;9.90;;;;;;;;;;5067852;28;38035;-77
2021/08/01 00:55:33;;;;;;;20.92;9.73;;;;;;;;;;5068087;28;37040;-77
2021/08/01 00:58:00;;;;;;;21.45;8.73;;;;;;;;;;5066387;28;40395;-78
2021/08/01 01:00:41;;;;;;;24.00;9.65;;;;;;;;;;5068022;28;38432;-78
2021/08/01 01:03:17;;;;;;;15.53;7.80;;;;;;;;;;5088292;27;38022;-77
2021/08/01 01:05:47;;;;;;;16.52;8.13;;;;;;;;;;5082612;28;36925;-77
2021/08/01 01:08:22;;;;;;;20.25;8.82;;;;;;;;;;5065812;28;39316;-77
2021/08/01 01:10:50;;;;;;;14.60;7.07;;;;;;;;;;5065486;28;39036;-78
2021/08/01 01:13:23;;;;;;;16.63;9.07;;;;;;;;;;5067539;28;38338;-78
2021/08/01 01:15:51;;;;;;;21.83;9.18;;;;;;;;;;5066811;28;37259;-78
2021/08/01 01:18:27;;;;;;;18.15;8.32;;;;;;;;;;5068283;28;38503;-78
2021/08/01 01:21:05;;;;;;;16.98;8.18;;;;;;;;;;5067475;28;39468;-78
2021/08/01 01:23:47;;;;;;;15.45;7.10;;;;;;;;;;5067598;28;49077;-78
2021/08/01 01:26:17;;;;;;;15.43;7.55;;;;;;;;;;5047468;28;37199;-76
2021/08/01 01:28:52;;;;;;;15.10;7.93;;;;;;;;;;5069056;28;40072;-77
2021/08/01 01:31:25;;;;;;;15.45;8.15;;;;;;;;;;5065845;28;39487;-78
2021/08/01 01:33:51;;;;;;;;;;;;;;;;;;5068005;28;38226;-77
2021/08/01 01:36:19;;;;;;;15.68;8.45;;;;;;;;;;5048595;28;38093;-77
2021/08/01 01:38:45;;;;;;;20.80;8.68;;;;;;;;;;5067344;28;39312;-77
2021/08/01 01:41:14;;;;;;;12.43;8.40;;;;;;;;;;5063894;28;39119;-78
2021/08/01 01:43:40;;;;;;;13.05;7.35;;;;;;;;;;5065995;28;38795;-78
2021/08/01 01:46:07;;;;;;;17.38;7.00;;;;;;;;;;5063570;28;37640;-77
2021/08/01 01:48:34;;;;;;;13.75;8.00;;;;;;;;;;5066158;28;39449;-78
2021/08/01 01:51:00;;;;;;;13.13;8.38;;;;;;;;;;5067368;28;38223;-78
2021/08/01 01:53:27;;;;;;;15.02;8.25;;;;;;;;;;5065493;28;39277;-77
2021/08/01 01:55:53;;;;;;;21.50;9.13;;;;;;;;;;5067668;28;36535;-78
2021/08/01 01:58:19;;;;;;;15.60;8.02;;;;;;;;;;5065796;28;40311;-78
2021/08/01 02:00:46;;;;;;;17.58;7.90;;;;;;;;;;5067777;28;39179;-78
2021/08/01 02:03:12;;;;;;;21.80;9.48;;;;;;;;;;5065838;28;38955;-78
2021/08/01 02:05:41;;;;;;;17.55;8.57;;;;;;;;;;5065633;28;37256;-77
2021/08/01 02:08:07;;;;;;;22.38;9.63;;;;;;;;;;5064186;28;39573;-77
2021/08/01 02:10:35;;;;;;;21.65;9.63;;;;;;;;;;5065194;28;39837;-78
2021/08/01 02:13:05;;;;;;;20.40;9.00;;;;;;;;;;5048911;28;38755;-75
2021/08/01 02:15:41;;;;;;;23.75;8.90;;;;;;;;;;5064410;28;36893;-78
2021/08/01 02:18:08;;;;;;;19.50;9.18;;;;;;;;;;5064967;28;39551;-77
2021/08/01 02:20:37;;;;;;;18.55;9.77;;;;;;;;;;5064214;28;38454;-78
2021/08/01 02:23:04;;;;;;;20.25;10.15;;;;;;;;;;5066472;28;38679;-77
2021/08/01 02:25:31;;;;;;;26.63;10.63;;;;;;;;;;5064957;28;36610;-78
2021/08/01 02:27:57;;;;;;;18.52;10.63;;;;;;;;;;5085826;28;40735;-78
2021/08/01 02:30:27;;;;;;;23.55;11.45;;;;;;;;;;5084557;27;38487;-78
2021/08/01 02:32:53;;;;;;;20.13;11.85;;;;;;;;;;5071311;28;38469;-78
2021/08/01 02:35:20;;;;;;;16.52;10.57;;;;;;;;;;5062004;28;38007;-77
2021/08/01 02:37:46;;;;;;;26.23;12.20;;;;;;;;;;5064995;28;40507;-78
2021/08/01 02:40:13;;;;;;;23.33;11.07;;;;;;;;;;5063720;28;36971;-77
2021/08/01 02:42:41;;;;;;;20.00;10.73;;;;;;;;;;5065294;28;38767;-78
2021/08/01 02:45:08;;;;;;;16.83;9.27;;;;;;;;;;5065279;28;37235;-78
2021/08/01 02:47:35;;;;;;;25.13;11.90;;;;;;;;;;5048841;28;39030;-77
2021/08/01 02:50:02;;;;;;;17.58;9.80;;;;;;;;;;5065391;28;38510;-78
2021/08/01 02:52:31;;;;;;;22.75;11.55;;;;;;;;;;5066051;28;38179;-78
2021/08/01 02:54:58;;;;;;;23.30;10.15;;;;;;;;;;5065649;28;36584;-78
2021/08/01 02:57:27;;;;;;;25.15;11.63;;;;;;;;;;5065761;28;38853;-78
2021/08/01 02:59:54;;;;;;;16.70;10.98;;;;;;;;;;5072294;28;38820;-78
2021/08/01 03:02:20;;;;;;;21.88;11.68;;;;;;;;;;5080710;27;38337;-78
2021/08/01 03:04:47;;;;;;;31.38;13.05;;;;;;;;;;5085749;28;38212;-78
2021/08/01 03:07:13;;;;;;;20.25;11.25;;;;;;;;;;5072140;27;38714;-78
2021/08/01 03:09:40;;;;;;;19.35;12.27;;;;;;;;;;5064914;28;39212;-78
2021/08/01 03:12:07;;;;;;;27.88;11.85;;;;;;;;;;5063147;28;39160;-77
2021/08/01 03:14:34;;;;;;;26.45;13.20;;;;;;;;;;5066663;28;37026;-78
2021/08/01 03:17:00;;;;;;;27.02;14.13;;;;;;;;;;5071987;28;39459;-78
2021/08/01 03:19:26;;;;;;;26.38;14.18;;;;;;;;;;5084451;28;38191;-78
2021/08/01 03:21:53;;;;;;;22.77;12.70;;;;;;;;;;5085794;28;38487;-78
2021/08/01 03:24:19;;;;;;;28.67;14.18;;;;;;;;;;5086369;28;38154;-78
2021/08/01 03:26:45;;;;;;;28.95;15.02;;;;;;;;;;5085538;27;39298;-78
2021/08/01 03:29:12;;;;;;;31.27;15.18;;;;;;;;;;5085864;28;39619;-78
2021/08/01 03:31:38;;;;;;;31.00;15.23;;;;;;;;;;5073377;27;36938;-78
2021/08/01 03:34:04;;;;;;;30.83;15.88;;;;;;;;;;5070178;28;36511;-78
2021/08/01 03:36:31;;;;;;;32.83;14.85;;;;;;;;;;5067560;28;38936;-78
2021/08/01 03:38:57;;;;;;;37.00;15.93;;;;;;;;;;5068737;28;39087;-78
2021/08/01 03:41:23;;;;;;;26.33;15.48;;;;;;;;;;5069947;28;37963;-78
2021/08/01 03:43:50;;;;;;;41.80;16.92;;;;;;;;;;5068754;28;37896;-78
2021/08/01 03:46:16;;;;;;;30.85;15.00;;;;;;;;;;5068176;28;39323;-78
2021/08/01 03:48:43;;;;;;;33.42;15.90;;;;;;;;;;5068724;28;39402;-78
2021/08/01 03:51:10;;;;;;;43.58;16.85;;;;;;;;;;5076682;27;39476;-78
2021/08/01 03:53:36;;;;;;;35.53;17.48;;;;;;;;;;5069699;28;36779;-78
2021/08/01 03:56:03;;;;;;;28.90;17.02;;;;;;;;;;5069360;28;38748;-78
2021/08/01 03:58:30;;;;;;;31.75;16.25;;;;;;;;;;5068678;28;39413;-78
2021/08/01 04:00:56;;;;;;;29.25;14.95;;;;;;;;;;5067843;28;38994;-81
2021/08/01 04:03:23;;;;;;;29.77;16.30;;;;;;;;;;5070848;28;37612;-78
2021/08/01 04:05:49;;;;;;;36.13;16.67;;;;;;;;;;5068182;28;39384;-78
2021/08/01 04:08:15;;;;;;;30.25;17.52;;;;;;;;;;5069978;28;38516;-78
2021/08/01 04:10:42;;;;;;;31.27;16.00;;;;;;;;;;5071039;28;38385;-78
2021/08/01 04:13:08;;;;;;;28.83;15.50;;;;;;;;;;5070227;28;37900;-78
2021/08/01 04:15:35;;;;;;;36.53;18.13;;;;;;;;;;5070908;28;38582;-78
2021/08/01 04:18:05;;;;;;;33.20;18.60;;;;;;;;;;5070299;28;38688;-78
2021/08/01 04:20:32;;;;;;;42.97;20.73;;;;;;;;;;5068476;28;48563;-78
2021/08/01 04:22:58;;;;;;;36.60;19.30;;;;;;;;;;5071591;28;37209;-78
2021/08/01 04:25:25;;;;;;;40.22;20.08;;;;;;;;;;5051256;28;39210;-78
2021/08/01 04:27:53;;;;;;;34.70;18.17;;;;;;;;;;5071601;28;39564;-78
2021/08/01 04:30:19;;;;;;;39.90;19.92;;;;;;;;;;5069306;28;38458;-78
2021/08/01 04:32:45;;;;;;;30.73;17.63;;;;;;;;;;5070763;28;37094;-78
2021/08/01 04:35:12;;;;;;;37.33;20.45;;;;;;;;;;5066402;28;39484;-78
2021/08/01 04:37:38;;;;;;;35.95;18.83;;;;;;;;;;5068770;28;38949;-78
2021/08/01 04:40:05;;;;;;;36.70;20.05;;;;;;;;;;5069685;28;38477;-78
2021/08/01 04:42:32;;;;;;;48.13;22.52;;;;;;;;;;5069518;28;49482;-78
2021/08/01 04:44:58;;;;;;;55.50;22.23;;;;;;;;;;5071072;28;38719;-78
2021/08/01 04:47:24;;;;;;;45.83;22.58;;;;;;;;;;5049266;28;37418;-79
2021/08/01 04:49:52;;;;;;;36.05;21.20;;;;;;;;;;5051348;28;38953;-79
2021/08/01 04:52:19;;;;;;;41.63;22.33;;;;;;;;;;5068504;28;37695;-78
2021/08/01 04:54:45;;;;;;;43.33;22.45;;;;;;;;;;5052029;28;40528;-78
2021/08/01 04:57:13;;;;;;;51.80;25.98;;;;;;;;;;5050802;28;39843;-78
2021/08/01 04:59:39;;;;;;;43.67;23.33;;;;;;;;;;5052484;28;39180;-78
2021/08/01 05:02:06;;;;;;;42.58;23.60;;;;;;;;;;5050716;28;38810;-78
2021/08/01 05:04:32;;;;;;;50.90;24.92;;;;;;;;;;5050131;28;40074;-78
2021/08/01 05:06:59;;;;;;;46.30;24.92;;;;;;;;;;5068699;28;38825;-78
2021/08/01 05:09:25;;;;;;;48.90;25.25;;;;;;;;;;5067347;28;37815;-78
2021/08/01 05:11:51;;;;;;;37.95;22.42;;;;;;;;;;5069869;28;37204;-78
2021/08/01 05:14:18;;;;;;;41.40;24.63;;;;;;;;;;5049857;28;37655;-78
2021/08/01 05:16:44;;;;;;;53.00;28.48;;;;;;;;;;5050050;28;39174;-78
2021/08/01 05:19:10;;;;;;;43.05;25.40;;;;;;;;;;5068583;28;38350;-78
2021/08/01 05:21:37;;;;;;;47.13;27.83;;;;;;;;;;5051685;28;36028;-78
2021/08/01 05:24:03;;;;;;;44.67;24.38;;;;;;;;;;5068263;28;38397;-78
2021/08/01 05:26:30;;;;;;;54.17;26.60;;;;;;;;;;5067980;28;38781;-78
2021/08/01 05:28:56;;;;;;;51.67;28.95;;;;;;;;;;5050188;28;39343;-78
2021/08/01 05:31:22;;;;;;;56.13;29.95;;;;;;;;;;5067132;27;36879;-79
2021/08/01 05:33:49;;;;;;;38.65;26.60;;;;;;;;;;5072984;28;38856;-78
2021/08/01 05:36:15;;;;;;;58.15;29.35;;;;;;;;;;5064214;28;38941;-78
2021/08/01 05:38:41;;;;;;;48.13;27.60;;;;;;;;;;5066177;28;39444;-78
2021/08/01 05:41:08;;;;;;;49.30;28.40;;;;;;;;;;5067808;28;37604;-78
2021/08/01 05:43:34;;;;;;;48.22;29.67;;;;;;;;;;5067669;28;39609;-78
2021/08/01 05:46:00;;;;;;;47.85;27.70;;;;;;;;;;5066189;28;37431;-78
2021/08/01 05:48:27;;;;;;;49.15;29.33;;;;;;;;;;5069828;28;46918;-78
2021/08/01 05:50:53;;;;;;;43.17;27.25;;;;;;;;;;5059978;28;39091;-78
2021/08/01 05:53:24;;;;;;;44.97;29.42;;;;;;;;;;5029511;28;39461;-78
2021/08/01 05:55:50;;;;;;;48.90;27.85;;;;;;;;;;5030718;28;38609;-79
2021/08/01 05:58:17;;;;;;;48.30;27.65;;;;;;;;;;5029981;28;38941;-78
2021/08/01 06:00:43;;;;;;;39.55;26.13;;;;;;;;;;5031681;28;37973;-78
2021/08/01 06:03:10;;;;;;;34.00;24.15;;;;;;;;;;5049389;28;39180;-78
2021/08/01 06:05:36;;;;;;;34.42;22.88;;;;;;;;;;5067471;28;38736;-78
2021/08/01 06:08:02;;;;;;;35.58;24.23;;;;;;;;;;5050449;28;38824;-77
2021/08/01 06:10:29;;;;;;;42.22;25.80;;;;;;;;;;5049747;28;35718;-78
2021/08/01 06:12:55;;;;;;;34.85;24.13;;;;;;;;;;5050040;28;37495;-78
2021/08/01 06:15:21;;;;;;;41.30;25.25;;;;;;;;;;5066692;28;38211;-79
2021/08/01 06:17:48;;;;;;;27.35;20.13;;;;;;;;;;5068467;28;38260;-78
2021/08/01 06:20:14;;;;;;;35.20;21.65;;;;;;;;;;5046642;28;38628;-77
2021/08/01 06:22:41;;;;;;;31.95;22.17;;;;;;;;;;5049612;28;38234;-78
2021/08/01 06:25:07;;;;;;;27.52;19.90;;;;;;;;;;5050077;28;39042;-77
2021/08/01 06:27:34;;;;;;;28.58;20.42;;;;;;;;;;5067756;28;38385;-78
2021/08/01 06:30:00;;;;;;;32.88;20.42;;;;;;;;;;5069605;28;37306;-78
2021/08/01 06:32:26;;;;;;;30.38;19.95;;;;;;;;;;5048795;28;40690;-78
2021/08/01 06:34:53;;;;;;;31.48;19.33;;;;;;;;;;5069562;28;39994;-78
2021/08/01 06:37:19;;;;;;;32.10;20.65;;;;;;;;;;5069854;28;38283;-79
2021/08/01 06:39:46;;;;;;;25.40;17.60;;;;;;;;;;5074012;28;36989;-79
2021/08/01 06:42:12;;;;;;;21.95;15.48;;;;;;;;;;5070758;28;39447;-79
2021/08/01 06:44:38;;;;;;;21.15;15.90;;;;;;;;;;5072479;28;38983;-79
2021/08/01 06:47:05;;;;;;;21.25;14.02;;;;;;;;;;5074600;28;37076;-79
2021/08/01 06:49:31;;;;;;;12.45;10.02;;;;;;;;;;5073354;28;37838;-80
2021/08/01 06:51:57;;;;;;;12.55;9.00;;;;;;;;;;5077027;28;37810;-79
2021/08/01 06:54:24;;;;;;;9.35;7.22;;;;;;;;;;5085168;28;38572;-80
2021/08/01 06:56:50;;;;;;;14.50;8.63;;;;;;;;;;5091252;28;39246;-80
2021/08/01 06:59:16;;;;;;;10.00;8.00;;;;;;;;;;5070038;28;36565;-79
2021/08/01 07:01:43;;;;;;;12.20;8.73;;;;;;;;;;5090275;28;39005;-80
2021/08/01 07:04:10;;;;;;;14.80;9.40;;;;;;;;;;5075686;28;38459;-80
2021/08/01 07:06:38;;;;;;;17.08;10.70;;;;;;;;;;5094358;28;39971;-80
2021/08/01 07:09:04;;;;;;;14.18;8.82;;;;;;;;;;5076698;28;36558;-79
2021/08/01 07:11:31;;;;;;;17.73;10.65;;;;;;;;;;5075730;28;37790;-80
2021/08/01 07:13:57;;;;;;;20.85;12.63;;;;;;;;;;5095704;28;39546;-81
2021/08/01 07:16:26;;;;;;;16.80;10.60;;;;;;;;;;5075891;28;37950;-80
2021/08/01 07:18:52;;;;;;;18.70;12.48;;;;;;;;;;5077804;28;36252;-80
2021/08/01 07:21:18;;;;;;;19.27;13.65;;;;;;;;;;5077090;28;38556;-80
2021/08/01 07:23:45;;;;;;;15.02;12.43;;;;;;;;;;5080197;28;38240;-80
2021/08/01 07:26:14;;;;;;;21.98;13.60;;;;;;;;;;5079672;28;37053;-80
2021/08/01 07:28:45;;;;;;;17.58;12.43;;;;;;;;;;5099037;28;38187;-80
2021/08/01 07:31:19;;;;;;;23.70;15.63;;;;;;;;;;5082100;28;38730;-80
2021/08/01 07:33:47;;;;;;;14.18;12.60;;;;;;;;;;5110001;22;39753;-76
2021/08/01 07:36:13;;;;;;;22.88;15.82;;;;;;;;;;5085931;28;39111;-75
2021/08/01 07:38:39;;;;;;;17.92;13.63;;;;;;;;;;5089711;28;38143;-75
2021/08/01 07:41:06;;;;;;;22.30;14.98;;;;;;;;;;5086835;28;39136;-76
2021/08/01 07:43:32;;;;;;;22.25;15.40;;;;;;;;;;5070723;28;37816;-76
2021/08/01 07:45:58;;;;;;;28.15;18.00;;;;;;;;;;5088306;28;38446;-76
2021/08/01 07:48:25;;;;;;;24.85;19.38;;;;;;;;;;5070254;28;35992;-76
2021/08/01 07:50:51;;;;;;;19.00;14.85;;;;;;;;;;5067144;28;38972;-76
2021/08/01 07:53:17;;;;;;;24.95;16.75;;;;;;;;;;5050618;28;37516;-76
2021/08/01 07:55:44;;;;;;;18.70;15.68;;;;;;;;;;5069830;28;39497;-76
2021/08/01 07:58:10;;;;;;;18.55;13.85;;;;;;;;;;5050252;28;37998;-77
2021/08/01 08:00:36;;;;;;;18.73;13.05;;;;;;;;;;5051234;28;37721;-77
2021/08/01 08:03:03;;;;;;;15.80;12.88;;;;;;;;;;5070614;28;39356;-77
2021/08/01 08:05:29;;;;;;;15.57;12.82;;;;;;;;;;5052758;28;48213;-77
2021/08/01 08:07:55;;;;;;;18.30;13.05;;;;;;;;;;5068779;28;36310;-77
2021/08/01 08:10:22;;;;;;;15.18;13.10;;;;;;;;;;5049379;28;37945;-77
2021/08/01 08:12:49;;;;;;;18.65;13.20;;;;;;;;;;5052102;28;38074;-77
2021/08/01 08:15:16;;;;;;;15.40;11.75;;;;;;;;;;5067002;28;38126;-77
2021/08/01 08:17:43;;;;;;;14.70;10.90;;;;;;;;;;5067830;28;37415;-76
2021/08/01 08:20:10;;;;;;;12.35;8.70;;;;;;;;;;5066476;28;38628;-77
2021/08/01 08:22:36;;;;;;;9.27;7.03;;;;;;;;;;5072258;28;39619;-77
2021/08/01 08:25:04;;;;;;;9.98;7.40;;;;;;;;;;5087785;28;37015;-76
2021/08/01 08:27:31;;;;;;;12.57;7.00;;;;;;;;;;5068146;28;47203;-76
2021/08/01 08:29:57;;;;;;;9.07;5.53;;;;;;;;;;5087913;28;37695;-76
2021/08/01 08:32:24;;;;;;;7.85;6.15;;;;;;;;;;5084543;28;38652;-76
2021/08/01 08:34:50;;;;;;;7.15;4.82;;;;;;;;;;5085647;28;38713;-76
2021/08/01 08:37:16;;;;;;;7.47;4.80;;;;;;;;;;5086117;28;35743;-76
2021/08/01 08:39:43;;;;;;;8.05;4.68;;;;;;;;;;5090227;28;40111;-76
2021/08/01 08:42:09;;;;;;;8.15;5.43;;;;;;;;;;5085847;28;37713;-76
2021/08/01 08:44:36;;;;;;;5.28;4.72;;;;;;;;;;5087637;28;39770;-77
2021/08/01 08:47:03;;;;;;;5.97;4.93;;;;;;;;;;5088962;28;37707;-76
2021/08/01 08:49:29;;;;;;;6.40;4.00;;;;;;;;;;5086471;28;39019;-77
2021/08/01 08:51:57;;;;;;;7.45;3.08;;;;;;;;;;5087110;28;38930;-76
2021/08/01 08:54:46;;;;;;;7.43;3.45;;;;;;;;;;5086904;28;37493;-77
2021/08/01 08:57:16;;;;;;;3.95;2.63;;;;;;;;;;5078763;28;37918;-77
2021/08/01 08:59:43;;;;;;;5.50;3.10;;;;;;;;;;5087875;28;38934;-77
2021/08/01 09:02:11;;;;;;;3.00;2.55;;;;;;;;;;5086076;28;37633;-77
2021/08/01 09:04:38;;;;;;;2.63;2.42;;;;;;;;;;5089366;28;38902;-77
2021/08/01 09:07:04;;;;;;;3.90;2.85;;;;;;;;;;5087076;28;36065;-76
2021/08/01 09:09:30;;;;;;;5.55;3.88;;;;;;;;;;5088764;28;39819;-77
2021/08/01 09:11:57;;;;;;;6.82;3.33;;;;;;;;;;5088505;28;37623;-77
2021/08/01 09:14:23;;;;;;;4.32;2.85;;;;;;;;;;5097536;28;38288;-77
2021/08/01 09:16:51;;;;;;;5.38;3.00;;;;;;;;;;5109366;28;37763;-77
2021/08/01 09:19:30;;;;;;;4.90;2.60;;;;;;;;;;5089727;28;38563;-76
2021/08/01 09:22:16;;;;;;;5.03;2.25;;;;;;;;;;5096718;28;38769;-76
2021/08/01 09:24:47;;;;;;;5.18;2.55;;;;;;;;;;5069458;28;47625;-76
2021/08/01 09:27:26;;;;;;;6.93;3.17;;;;;;;;;;5069748;28;37098;-76
2021/08/01 09:29:52;;;;;;;5.15;2.20;;;;;;;;;;5068940;28;38635;-76
2021/08/01 09:32:19;;;;;;;4.00;2.10;;;;;;;;;;5078475;27;37395;-77
2021/08/01 09:34:46;;;;;;;5.60;2.40;;;;;;;;;;5087279;28;37604;-77
2021/08/01 09:37:12;;;;;;;3.47;3.15;;;;;;;;;;5086399;28;36600;-77
2021/08/01 09:39:40;;;;;;;4.68;2.50;;;;;;;;;;5088247;28;38750;-77
2021/08/01 09:42:06;;;;;;;3.75;2.45;;;;;;;;;;5086471;28;38439;-77
2021/08/01 09:44:36;;;;;;;5.25;3.17;;;;;;;;;;5085364;28;38089;-77
2021/08/01 09:47:02;;;;;;;5.68;3.17;;;;;;;;;;5085896;28;35785;-76
2021/08/01 09:49:30;;;;;;;5.40;3.28;;;;;;;;;;5077642;28;39619;-76
2021/08/01 09:52:01;;;;;;;4.63;3.08;;;;;;;;;;5085429;28;37424;-77
2021/08/01 09:54:44;;;;;;;5.85;3.30;;;;;;;;;;5087550;28;48886;-76
2021/08/01 09:57:15;;;;;;;5.18;3.03;;;;;;;;;;5086470;28;36446;-77
2021/08/01 09:59:42;;;;;;;5.20;3.70;;;;;;;;;;5087254;28;39959;-76
2021/08/01 10:02:08;;;;;;;3.50;3.20;;;;;;;;;;5086730;28;39324;-76
2021/08/01 10:04:40;;;;;;;5.57;3.50;;;;;;;;;;5086309;28;37275;-76
2021/08/01 10:07:07;;;;;;;3.90;3.50;;;;;;;;;;5084625;28;36173;-76
2021/08/01 10:09:34;;;;;;;4.07;3.35;;;;;;;;;;5086542;28;39608;-76
2021/08/01 10:12:01;;;;;;;3.10;2.85;;;;;;;;;;5085081;28;37817;-76
2021/08/01 10:14:28;;;;;;;5.05;3.70;;;;;;;;;;5086230;27;49045;-75
2021/08/01 10:16:55;;;;;;;3.15;2.42;;;;;;;;;;5087844;27;36793;-76
2021/08/01 10:19:22;;;;;;;2.60;2.40;;;;;;;;;;5086469;28;39707;-76
2021/08/01 10:21:49;;;;;;;4.80;3.03;;;;;;;;;;5092608;27;38373;-76
2021/08/01 10:24:17;;;;;;;3.65;3.05;;;;;;;;;;5089230;28;38058;-76
2021/08/01 10:26:47;;;;;;;5.63;3.13;;;;;;;;;;5107800;28;37755;-76
2021/08/01 10:29:15;;;;;;;4.10;3.03;;;;;;;;;;5089389;28;39250;-76
2021/08/01 10:31:48;;;;;;;4.32;3.15;;;;;;;;;;5088770;27;40559;-76
2021/08/01 10:34:17;;;;;;;3.65;3.00;;;;;;;;;;5066432;28;38216;-76
2021/08/01 10:36:54;;;;;;;4.32;3.70;;;;;;;;;;5086065;28;36242;-76
2021/08/01 10:39:21;;;;;;;5.22;3.10;;;;;;;;;;5086979;28;39745;-76
2021/08/01 10:41:47;;;;;;;5.47;2.47;;;;;;;;;;5085958;28;38451;-76
2021/08/01 10:44:14;;;;;;;3.03;1.92;;;;;;;;;;5084921;28;37139;-76
2021/08/01 10:46:41;;;;;;;3.55;2.00;;;;;;;;;;5085075;28;37097;-75
2021/08/01 10:49:10;;;;;;;4.35;2.20;;;;;;;;;;5085546;28;39095;-76
2021/08/01 10:51:37;;;;;;;5.53;2.20;;;;;;;;;;5067235;28;38899;-76
2021/08/01 10:54:26;;;;;;;4.25;2.40;;;;;;;;;;5085822;28;38292;-76
2021/08/01 10:57:12;;;;;;;5.78;2.28;;;;;;;;;;5087214;28;36985;-76
2021/08/01 10:59:45;;;;;;;3.45;2.25;;;;;;;;;;5084280;28;47225;-76
2021/08/01 11:02:12;;;;;;;2.72;1.80;;;;;;;;;;5083086;28;37705;-76
2021/08/01 11:04:39;;;;;;;3.30;1.60;;;;;;;;;;5067692;28;37240;-76
2021/08/01 11:07:06;;;;;;;3.28;1.80;;;;;;;;;;5067232;28;35546;-77
2021/08/01 11:09:32;;;;;;;2.22;1.70;;;;;;;;;;5084941;28;38989;-76
2021/08/01 11:12:17;;;;;;;2.85;1.63;;;;;;;;;;5085980;28;37962;-76
2021/08/01 11:14:47;;;;;;;2.08;1.65;;;;;;;;;;5066282;28;48319;-77
2021/08/01 11:17:14;;;;;;;1.80;1.45;;;;;;;;;;5047262;28;36085;-77
2021/08/01 11:19:40;;;;;;;3.03;1.40;;;;;;;;;;5065918;28;39011;-77
2021/08/01 11:22:06;;;;;;;2.25;1.58;;;;;;;;;;5046411;28;38356;-77
2021/08/01 11:24:33;;;;;;;5.15;2.00;;;;;;;;;;5047784;28;36898;-77
2021/08/01 11:27:05;;;;;;;4.25;1.70;;;;;;;;;;5047846;28;35438;-76
2021/08/01 11:29:32;;;;;;;1.92;1.65;;;;;;;;;;5068625;28;47154;-77
2021/08/01 11:32:08;;;;;;;2.78;1.65;;;;;;;;;;5085764;28;37172;-77
2021/08/01 11:34:35;;;;;;;2.65;1.70;;;;;;;;;;5082100;28;48485;-76
2021/08/01 11:37:15;;;;;;;1.88;1.42;;;;;;;;;;5085398;28;35608;-77
2021/08/01 11:39:52;;;;;;;1.77;1.63;;;;;;;;;;5087706;28;48562;-77
2021/08/01 11:42:22;;;;;;;3.60;1.48;;;;;;;;;;5083233;28;38349;-77
2021/08/01 11:44:56;;;;;;;5.72;2.28;;;;;;;;;;5086315;28;38399;-77
2021/08/01 11:47:23;;;;;;;3.13;1.88;;;;;;;;;;5093107;28;37149;-77
2021/08/01 11:49:50;;;;;;;2.55;1.15;;;;;;;;;;5067600;28;38619;-77
2021/08/01 11:52:45;;;;;;;4.05;1.65;;;;;;;;;;5083328;28;37544;-77
2021/08/01 11:55:21;;;;;;;2.50;1.40;;;;;;;;;;5077236;28;38464;-78
2021/08/01 11:57:50;;;;;;;2.35;1.50;;;;;;;;;;5070024;28;36196;-77
2021/08/01 12:00:17;;;;;;;2.60;1.40;;;;;;;;;;5070375;28;37653;-77
2021/08/01 12:02:51;;;;;;;3.08;1.77;;;;;;;;;;5071558;28;38164;-77
2021/08/01 12:05:17;;;;;;;4.05;1.55;;;;;;;;;;5088929;28;38264;-78
2021/08/01 12:07:45;;;;;;;2.00;1.58;;;;;;;;;;5088429;28;37330;-77
2021/08/01 12:10:15;;;;;;;3.50;2.17;;;;;;;;;;5087275;28;40214;-77
2021/08/01 12:12:41;;;;;;;3.63;1.75;;;;;;;;;;5087413;28;37781;-77
2021/08/01 12:15:08;;;;;;;2.03;1.83;;;;;;;;;;5087461;27;36852;-77
2021/08/01 12:17:37;;;;;;;2.50;1.48;;;;;;;;;;5087856;27;36217;-77
2021/08/01 12:20:04;;;;;;;4.68;1.80;;;;;;;;;;5088424;27;39107;-78
2021/08/01 12:22:31;;;;;;;1.98;1.83;;;;;;;;;;5070027;28;47016;-77
2021/08/01 12:24:58;;;;;;;2.92;1.83;;;;;;;;;;5089742;28;39051;-77
2021/08/01 12:27:26;;;;;;;2.63;2.05;;;;;;;;;;5087322;28;36743;-76
2021/08/01 12:29:53;;;;;;;1.95;1.70;;;;;;;;;;5072258;28;38012;-77
2021/08/01 12:32:30;;;;;;;6.78;1.92;;;;;;;;;;5069594;28;37289;-77
2021/08/01 12:35:03;;;;;;;3.15;2.15;;;;;;;;;;5070730;28;38751;-77
2021/08/01 12:37:39;;;;;;;4.40;2.28;;;;;;;;;;5088570;28;36261;-76
2021/08/01 12:40:06;;;;;;;4.25;1.77;;;;;;;;;;5095432;22;40020;-78
2021/08/01 12:42:32;;;;;;;2.78;2.28;;;;;;;;;;5082379;28;38491;-78
2021/08/01 12:45:00;;;;;;;2.83;2.00;;;;;;;;;;5068658;28;38763;-79
2021/08/01 12:47:27;;;;;;;2.88;1.98;;;;;;;;;;5068750;28;38467;-79
2021/08/01 12:49:55;;;;;;;2.22;1.88;;;;;;;;;;5060865;28;39784;-78
2021/08/01 12:52:26;;;;;;;3.40;2.33;;;;;;;;;;5069893;28;39344;-79
2021/08/01 12:54:53;;;;;;;4.05;2.50;;;;;;;;;;5058439;28;38616;-78
2021/08/01 12:57:20;;;;;;;5.32;2.58;;;;;;;;;;5083156;28;38547;-78
2021/08/01 13:00:05;;;;;;;4.97;2.80;;;;;;;;;;5070334;28;38974;-78
2021/08/01 13:02:31;;;;;;;4.25;2.45;;;;;;;;;;5082982;28;47271;-78
2021/08/01 13:04:57;;;;;;;3.15;2.40;;;;;;;;;;5084614;28;38504;-78
2021/08/01 13:07:24;;;;;;;3.72;2.80;;;;;;;;;;5076821;28;37685;-78
2021/08/01 13:10:03;;;;;;;5.68;3.20;;;;;;;;;;5048446;28;38698;-79
2021/08/01 13:12:30;;;;;;;6.53;2.80;;;;;;;;;;5059610;28;38649;-78
2021/08/01 13:14:56;;;;;;;4.88;2.90;;;;;;;;;;5069426;28;38104;-78
2021/08/01 13:17:39;;;;;;;3.80;2.63;;;;;;;;;;5083466;28;37327;-78
2021/08/01 13:20:06;;;;;;;2.80;2.28;;;;;;;;;;5068589;28;40140;-78
2021/08/01 13:22:36;;;;;;;4.18;2.42;;;;;;;;;;5083939;28;38535;-78
2021/08/01 13:25:03;;;;;;;3.03;2.35;;;;;;;;;;5069944;28;39470;-78
2021/08/01 13:27:30;;;;;;;3.97;2.30;;;;;;;;;;5067827;28;47578;-79
2021/08/01 13:30:15;;;;;;;3.28;1.98;;;;;;;;;;5068536;28;40262;-78
2021/08/01 13:32:42;;;;;;;4.60;2.75;;;;;;;;;;5067503;28;49076;-78
2021/08/01 13:35:23;;;;;;;5.72;2.38;;;;;;;;;;5057533;28;36405;-77
2021/08/01 13:38:06;;;;;;;5.60;2.92;;;;;;;;;;5077949;28;37855;-78
2021/08/01 13:40:37;;;;;;;4.38;2.78;;;;;;;;;;5061088;28;48975;-78
2021/08/01 13:43:18;;;;;;;5.30;2.83;;;;;;;;;;5084823;28;39890;-80
2021/08/01 13:45:45;;;;;;;3.22;2.85;;;;;;;;;;5088853;28;39501;-79
2021/08/01 13:48:11;;;;;;;4.68;2.80;;;;;;;;;;5069069;28;36730;-79
2021/08/01 13:50:38;;;;;;;9.40;3.63;;;;;;;;;;5078411;28;39950;-78
2021/08/01 13:53:05;;;;;;;5.63;4.05;;;;;;;;;;5066483;28;38289;-78
2021/08/01 13:55:31;;;;;;;4.75;3.25;;;;;;;;;;5066243;28;38455;-80
2021/08/01 13:58:05;;;;;;;3.33;2.33;;;;;;;;;;5067553;28;36848;-78
2021/08/01 14:00:31;;;;;;;2.75;2.25;;;;;;;;;;5075783;28;48971;-79
2021/08/01 14:03:01;;;;;;;2.83;1.88;;;;;;;;;;5077421;28;38704;-78
2021/08/01 14:05:29;;;;;;;2.25;2.00;;;;;;;;;;5075128;28;47477;-78
2021/08/01 14:07:55;;;;;;;5.85;2.22;;;;;;;;;;5086247;28;38048;-78
2021/08/01 14:10:22;;;;;;;4.13;2.20;;;;;;;;;;5055779;28;39008;-79
2021/08/01 14:12:48;;;;;;;2.47;2.00;;;;;;;;;;5063618;28;37652;-79
2021/08/01 14:15:15;;;;;;;2.58;2.05;;;;;;;;;;5094931;28;39357;-79
2021/08/01 14:17:42;;;;;;;1.92;1.80;;;;;;;;;;5078191;28;35917;-79
2021/08/01 14:20:09;;;;;;;4.75;1.90;;;;;;;;;;5095111;28;38845;-79
2021/08/01 14:22:36;;;;;;;2.58;1.50;;;;;;;;;;5077961;28;39022;-79
2021/08/01 14:25:06;;;;;;;1.98;1.60;;;;;;;;;;5095978;28;38693;-78
2021/08/01 14:27:33;;;;;;;2.03;1.50;;;;;;;;;;5070021;28;47187;-78
2021/08/01 14:30:00;;;;;;;3.17;1.42;;;;;;;;;;5096021;28;38932;-79
2021/08/01 14:32:27;;;;;;;1.60;1.27;;;;;;;;;;5074997;28;38612;-79
2021/08/01 14:34:53;;;;;;;2.53;1.27;;;;;;;;;;5087123;28;38027;-78
2021/08/01 14:37:20;;;;;;;1.20;1.10;;;;;;;;;;5076991;28;35891;-78